Time;durP1;ratioP1;P1;durP2;ratioP2;P2;SDS_P1;SDS_P2;PMS_P1;PMS_P2;Temp;Humidity;BMP_temperature;BMP_pressure;BME280_temperature;BME280_humidity;BME280_pressure;Samples;Min_cycle;Max_cycle;Signal;HPM_P1;HPM_P2
2023/07/04 00:01:10;;;;;;;1.35;0.98;;;;;;;;;;5061809;28;20029;-83
2023/07/04 00:03:40;;;;;;;2.00;1.45;;;;;;;;;;5060286;28;20024;-82
2023/07/04 00:06:10;;;;;;;1.25;0.95;;;;;;;;;;5058412;28;20020;-82
2023/07/04 00:08:36;;;;;;;1.02;0.93;;;;;;;;;;5061417;28;20017;-83
2023/07/04 00:11:03;;;;;;;0.88;0.88;;;;;;;;;;5060412;28;20102;-84
2023/07/04 00:13:33;;;;;;;2.38;1.42;;;;;;;;;;5055388;28;20037;-81
2023/07/04 00:15:59;;;;;;;;;;;;;;;;;;5060371;28;20107;-80
2023/07/04 00:18:27;;;;;;;0.82;0.63;;;;;;;;;;5065810;28;20189;-81
2023/07/04 00:20:55;;;;;;;1.95;1.05;;;;;;;;;;5059822;28;20029;-84
2023/07/04 00:23:31;;;;;;;2.15;1.20;;;;;;;;;;5057995;28;20025;-83
2023/07/04 00:25:57;;;;;;;2.13;1.27;;;;;;;;;;5055003;28;20384;-82
2023/07/04 00:28:24;;;;;;;1.45;1.25;;;;;;;;;;5061386;28;20040;-84
2023/07/04 00:30:54;;;;;;;1.95;1.38;;;;;;;;;;5056449;28;20040;-82
2023/07/04 00:33:20;;;;;;;;;;;;;;;;;;5063669;28;20078;-81
2023/07/04 00:35:46;;;;;;;2.42;0.80;;;;;;;;;;5064515;28;19978;-84
2023/07/04 00:38:13;;;;;;;1.08;0.98;;;;;;;;;;5058870;28;20052;-84
2023/07/04 00:40:38;;;;;;;2.10;1.35;;;;;;;;;;5061171;28;20035;-84
2023/07/04 00:43:05;;;;;;;1.25;0.68;;;;;;;;;;5060927;28;20067;-81
2023/07/04 00:45:35;;;;;;;0.63;0.63;;;;;;;;;;5058056;28;20069;-83
2023/07/04 00:48:03;;;;;;;2.40;1.55;;;;;;;;;;5058947;28;20016;-85
2023/07/04 00:50:34;;;;;;;1.23;1.02;;;;;;;;;;5069516;28;20024;-81
2023/07/04 00:53:04;;;;;;;0.55;0.55;;;;;;;;;;5057280;28;20464;-82
2023/07/04 00:55:33;;;;;;;1.27;0.88;;;;;;;;;;5055467;28;20052;-81
2023/07/04 00:58:04;;;;;;;1.52;0.75;;;;;;;;;;5058127;28;20029;-82
2023/07/04 01:00:31;;;;;;;1.27;0.98;;;;;;;;;;5066782;28;20024;-83
2023/07/04 01:03:20;;;;;;;2.35;1.10;;;;;;;;;;5053514;28;20026;-82
2023/07/04 01:05:53;;;;;;;0.68;0.65;;;;;;;;;;5059419;28;20050;-83
2023/07/04 01:08:32;;;;;;;1.17;0.98;;;;;;;;;;5055228;28;20381;-82
2023/07/04 01:11:02;;;;;;;2.30;1.23;;;;;;;;;;5057728;28;20458;-84
2023/07/04 01:13:36;;;;;;;0.70;0.70;;;;;;;;;;5059590;28;20031;-85
2023/07/04 01:16:10;;;;;;;1.42;0.85;;;;;;;;;;5059993;28;20378;-83
2023/07/04 01:18:38;;;;;;;1.42;1.02;;;;;;;;;;5053812;28;20460;-84
2023/07/04 01:21:06;;;;;;;0.80;0.80;;;;;;;;;;5053043;28;20436;-84
2023/07/04 01:23:47;;;;;;;0.82;0.82;;;;;;;;;;5054786;28;20029;-87
2023/07/04 01:26:16;;;;;;;2.08;1.00;;;;;;;;;;5061970;28;20033;-85
2023/07/04 01:28:42;;;;;;;1.05;0.95;;;;;;;;;;5061853;28;20029;-85
2023/07/04 01:31:09;;;;;;;1.88;0.93;;;;;;;;;;5063712;28;20461;-84
2023/07/04 01:33:34;;;;;;;1.30;0.82;;;;;;;;;;5063803;28;20032;-85
2023/07/04 01:36:00;;;;;;;1.75;1.02;;;;;;;;;;5060862;28;20024;-85
2023/07/04 01:38:25;;;;;;;0.68;0.57;;;;;;;;;;5055290;28;20479;-86
2023/07/04 01:40:51;;;;;;;1.60;1.17;;;;;;;;;;5059543;28;20087;-85
2023/07/04 01:43:17;;;;;;;2.42;1.08;;;;;;;;;;5062625;28;20070;-84
2023/07/04 01:45:45;;;;;;;0.60;0.55;;;;;;;;;;5058458;28;20539;-83
2023/07/04 01:48:11;;;;;;;1.27;0.90;;;;;;;;;;5053987;28;20475;-82
2023/07/04 01:50:36;;;;;;;1.60;1.20;;;;;;;;;;5054926;28;20103;-85
2023/07/04 01:53:02;;;;;;;0.70;0.70;;;;;;;;;;5054227;28;20059;-81
2023/07/04 01:55:27;;;;;;;1.45;1.35;;;;;;;;;;5060281;28;20039;-85
2023/07/04 01:57:53;;;;;;;1.13;0.60;;;;;;;;;;5054966;28;20043;-84
2023/07/04 02:00:21;;;;;;;2.22;1.08;;;;;;;;;;5052474;28;20056;-85
2023/07/04 02:02:49;;;;;;;1.48;0.90;;;;;;;;;;5055876;28;20028;-84
2023/07/04 02:05:19;;;;;;;1.20;0.98;;;;;;;;;;5054861;28;20025;-83
2023/07/04 02:07:45;;;;;;;0.75;0.75;;;;;;;;;;5054044;28;20035;-84
2023/07/04 02:10:10;;;;;;;1.58;1.33;;;;;;;;;;5055908;28;20116;-85
2023/07/04 02:12:36;;;;;;;1.35;0.73;;;;;;;;;;5057245;28;20028;-82
2023/07/04 02:15:01;;;;;;;1.52;1.30;;;;;;;;;;5057953;28;20472;-85
2023/07/04 02:17:27;;;;;;;1.83;1.15;;;;;;;;;;5054388;28;20044;-82
2023/07/04 02:19:52;;;;;;;1.23;0.50;;;;;;;;;;5055269;28;20029;-84
2023/07/04 02:22:19;;;;;;;1.88;1.25;;;;;;;;;;5058610;28;20037;-82
2023/07/04 02:24:44;;;;;;;2.10;1.27;;;;;;;;;;5059616;28;20047;-86
2023/07/04 02:27:09;;;;;;;1.45;0.95;;;;;;;;;;5061815;28;20016;-83
2023/07/04 02:29:35;;;;;;;2.60;1.40;;;;;;;;;;5059012;28;20396;-83
2023/07/04 02:32:00;;;;;;;1.00;0.70;;;;;;;;;;5055497;28;20368;-83
2023/07/04 02:34:26;;;;;;;1.33;1.00;;;;;;;;;;5065190;28;20119;-82
2023/07/04 02:36:51;;;;;;;1.73;1.02;;;;;;;;;;5057833;28;20101;-82
2023/07/04 02:39:17;;;;;;;0.98;0.75;;;;;;;;;;5061654;28;20426;-84
2023/07/04 02:41:42;;;;;;;2.45;1.33;;;;;;;;;;5063050;28;20033;-84
2023/07/04 02:44:08;;;;;;;1.60;0.95;;;;;;;;;;5060133;28;20024;-86
2023/07/04 02:46:33;;;;;;;1.50;1.02;;;;;;;;;;5058916;28;20128;-85
2023/07/04 02:48:59;;;;;;;1.33;1.10;;;;;;;;;;5057503;28;20385;-81
2023/07/04 02:51:24;;;;;;;2.17;1.15;;;;;;;;;;5063709;28;20032;-86
2023/07/04 02:53:50;;;;;;;2.47;1.40;;;;;;;;;;5059726;28;20098;-83
2023/07/04 02:56:15;;;;;;;2.38;1.13;;;;;;;;;;5060376;28;20028;-83
2023/07/04 02:58:41;;;;;;;1.05;0.70;;;;;;;;;;5056334;28;20032;-83
2023/07/04 03:01:07;;;;;;;1.67;0.95;;;;;;;;;;5060588;28;20052;-85
2023/07/04 03:03:32;;;;;;;0.52;0.50;;;;;;;;;;5058307;28;20032;-83
2023/07/04 03:06:00;;;;;;;1.90;0.80;;;;;;;;;;5061020;28;20029;-85
2023/07/04 03:08:25;;;;;;;2.42;1.10;;;;;;;;;;5063586;28;20020;-85
2023/07/04 03:10:51;;;;;;;1.35;1.00;;;;;;;;;;5067766;28;20491;-87
2023/07/04 03:13:16;;;;;;;1.05;0.73;;;;;;;;;;5060639;28;20020;-85
2023/07/04 03:15:42;;;;;;;2.05;0.70;;;;;;;;;;5066568;28;20056;-81
2023/07/04 03:18:08;;;;;;;0.80;0.80;;;;;;;;;;5063232;28;20028;-86
2023/07/04 03:20:34;;;;;;;1.45;1.15;;;;;;;;;;5067261;28;20036;-85
2023/07/04 03:22:59;;;;;;;1.38;1.17;;;;;;;;;;5070089;28;20115;-86
2023/07/04 03:25:25;;;;;;;1.23;0.95;;;;;;;;;;5054815;28;20068;-83
2023/07/04 03:27:51;;;;;;;3.85;1.63;;;;;;;;;;5062945;28;20027;-85
2023/07/04 03:30:17;;;;;;;1.00;0.90;;;;;;;;;;5062130;28;20032;-84
2023/07/04 03:32:42;;;;;;;2.10;1.25;;;;;;;;;;5067083;28;20035;-86
2023/07/04 03:35:08;;;;;;;1.55;1.02;;;;;;;;;;5058407;28;20473;-85
2023/07/04 03:37:35;;;;;;;2.05;1.10;;;;;;;;;;5066227;28;20050;-86
2023/07/04 03:40:06;;;;;;;1.45;1.05;;;;;;;;;;5056530;28;20128;-83
2023/07/04 03:42:33;;;;;;;1.85;1.13;;;;;;;;;;5063838;28;20032;-84
2023/07/04 03:44:58;;;;;;;2.10;0.90;;;;;;;;;;5055660;28;20036;-86
2023/07/04 03:47:24;;;;;;;0.95;0.80;;;;;;;;;;5063194;28;20029;-84
2023/07/04 03:49:49;;;;;;;1.70;0.88;;;;;;;;;;5060411;28;20124;-84
2023/07/04 03:52:15;;;;;;;2.10;1.52;;;;;;;;;;5061673;28;20487;-84
2023/07/04 03:54:40;;;;;;;0.90;0.60;;;;;;;;;;5066139;28;20078;-85
2023/07/04 03:57:06;;;;;;;1.65;0.75;;;;;;;;;;5059446;28;20032;-85
2023/07/04 03:59:31;;;;;;;1.38;1.10;;;;;;;;;;5056464;28;20032;-84
2023/07/04 04:01:57;;;;;;;2.08;1.48;;;;;;;;;;5058733;28;20024;-84
2023/07/04 04:04:22;;;;;;;2.05;1.30;;;;;;;;;;5065613;28;20449;-83
2023/07/04 04:06:55;;;;;;;2.08;1.45;;;;;;;;;;5058506;28;20499;-83
2023/07/04 04:09:20;;;;;;;1.02;0.93;;;;;;;;;;5062188;28;20063;-83
2023/07/04 04:11:46;;;;;;;2.00;1.15;;;;;;;;;;5062120;28;20060;-86
2023/07/04 04:14:11;;;;;;;2.22;1.00;;;;;;;;;;5062060;28;20028;-84
2023/07/04 04:16:37;;;;;;;2.42;1.42;;;;;;;;;;5061212;28;20044;-84
2023/07/04 04:19:03;;;;;;;1.35;0.82;;;;;;;;;;5058660;28;20029;-87
2023/07/04 04:21:28;;;;;;;3.00;1.77;;;;;;;;;;5057234;28;20033;-87
2023/07/04 04:23:54;;;;;;;2.22;1.30;;;;;;;;;;5066611;28;20024;-87
2023/07/04 04:26:21;;;;;;;3.45;1.70;;;;;;;;;;5067192;28;20025;-88
2023/07/04 04:28:47;;;;;;;1.83;1.00;;;;;;;;;;5063229;28;20073;-86
2023/07/04 04:31:14;;;;;;;4.30;1.08;;;;;;;;;;5064311;28;20100;-88
2023/07/04 04:33:40;;;;;;;1.20;1.08;;;;;;;;;;5095839;28;20016;-87
2023/07/04 04:36:05;;;;;;;1.27;1.15;;;;;;;;;;5063957;28;20056;-88
2023/07/04 04:38:31;;;;;;;2.38;1.77;;;;;;;;;;5055366;28;20029;-87
2023/07/04 04:41:04;;;;;;;2.83;1.98;;;;;;;;;;5056039;28;20028;-87
2023/07/04 04:43:32;;;;;;;1.50;1.40;;;;;;;;;;5056707;28;20496;-87
2023/07/04 04:46:04;;;;;;;2.88;2.13;;;;;;;;;;5064510;28;20051;-87
2023/07/04 04:48:36;;;;;;;1.80;1.38;;;;;;;;;;5058450;28;20082;-87
2023/07/04 04:51:07;;;;;;;4.63;1.77;;;;;;;;;;5059079;28;20404;-86
2023/07/04 04:53:37;;;;;;;1.60;1.40;;;;;;;;;;5060419;28;20033;-85
2023/07/04 04:56:06;;;;;;;;;;;;;;;;;;5061334;28;20031;-85
2023/07/04 04:58:31;;;;;;;1.67;1.00;;;;;;;;;;5059860;28;19924;-84
2023/07/04 05:00:57;;;;;;;1.73;1.48;;;;;;;;;;5063371;28;20509;-87
2023/07/04 05:03:23;;;;;;;1.70;1.60;;;;;;;;;;5060594;28;20550;-86
2023/07/04 05:05:48;;;;;;;2.25;1.25;;;;;;;;;;5059938;28;20107;-80
2023/07/04 05:08:14;;;;;;;1.50;1.15;;;;;;;;;;5056923;28;20116;-82
2023/07/04 05:10:39;;;;;;;2.58;1.40;;;;;;;;;;5060680;28;20025;-86
2023/07/04 05:13:05;;;;;;;5.22;1.90;;;;;;;;;;5058178;28;20037;-88
2023/07/04 05:15:30;;;;;;;2.97;1.75;;;;;;;;;;5057374;28;20045;-85
2023/07/04 05:17:56;;;;;;;1.55;1.45;;;;;;;;;;5061574;28;20152;-87
2023/07/04 05:20:24;;;;;;;3.40;1.70;;;;;;;;;;5057881;28;20028;-87
2023/07/04 05:22:56;;;;;;;2.78;1.58;;;;;;;;;;5059998;28;20800;-84
2023/07/04 05:25:22;;;;;;;1.92;1.60;;;;;;;;;;5052997;28;20028;-87
2023/07/04 05:27:47;;;;;;;3.55;2.30;;;;;;;;;;5062735;28;20515;-87
2023/07/04 05:30:14;;;;;;;2.90;1.75;;;;;;;;;;5060963;28;20025;-85
2023/07/04 05:32:40;;;;;;;3.80;2.05;;;;;;;;;;5060654;28;20035;-87
2023/07/04 05:35:06;;;;;;;1.83;1.42;;;;;;;;;;5061609;28;20029;-87
2023/07/04 05:37:31;;;;;;;2.42;2.05;;;;;;;;;;5057684;28;20078;-81
2023/07/04 05:39:57;;;;;;;2.08;1.80;;;;;;;;;;5065357;28;20463;-79
2023/07/04 05:42:24;;;;;;;3.00;1.85;;;;;;;;;;5049263;28;20028;-79
2023/07/04 05:44:50;;;;;;;1.88;1.55;;;;;;;;;;5050353;28;20121;-79
2023/07/04 05:47:15;;;;;;;2.58;1.85;;;;;;;;;;5051716;28;20139;-78
2023/07/04 05:49:40;;;;;;;1.95;1.33;;;;;;;;;;5057341;28;20131;-80
2023/07/04 05:52:06;;;;;;;1.38;1.00;;;;;;;;;;5058914;28;20511;-79
2023/07/04 05:54:32;;;;;;;3.42;1.60;;;;;;;;;;5060395;28;20060;-79
2023/07/04 05:56:58;;;;;;;3.75;1.70;;;;;;;;;;5057020;28;20052;-80
2023/07/04 05:59:24;;;;;;;1.98;1.38;;;;;;;;;;5044753;28;20032;-77
2023/07/04 06:01:53;;;;;;;3.08;1.88;;;;;;;;;;5050471;28;20162;-78
2023/07/04 06:04:19;;;;;;;2.95;1.67;;;;;;;;;;5055733;28;20032;-80
2023/07/04 06:06:51;;;;;;;2.75;1.80;;;;;;;;;;5048512;28;20042;-78
2023/07/04 06:09:17;;;;;;;1.90;1.48;;;;;;;;;;5049629;28;20112;-79
2023/07/04 06:11:45;;;;;;;3.05;1.83;;;;;;;;;;5058125;28;20024;-79
2023/07/04 06:14:21;;;;;;;2.00;1.38;;;;;;;;;;5053300;28;20457;-88
2023/07/04 06:16:46;;;;;;;1.88;1.40;;;;;;;;;;5044706;28;20041;-82
2023/07/04 06:19:12;;;;;;;2.60;1.20;;;;;;;;;;5053051;28;20091;-83
2023/07/04 06:21:37;;;;;;;6.05;1.70;;;;;;;;;;5053302;28;20070;-84
2023/07/04 06:24:03;;;;;;;2.03;1.60;;;;;;;;;;5060784;28;20082;-83
2023/07/04 06:26:32;;;;;;;2.80;2.10;;;;;;;;;;5058079;28;20031;-82
2023/07/04 06:28:57;;;;;;;2.25;1.38;;;;;;;;;;5058831;28;20028;-81
2023/07/04 06:31:25;;;;;;;2.13;1.55;;;;;;;;;;5049700;28;20033;-82
2023/07/04 06:33:50;;;;;;;1.42;1.13;;;;;;;;;;5050407;28;20121;-82
2023/07/04 06:36:16;;;;;;;3.58;1.90;;;;;;;;;;5053603;28;20885;-82
2023/07/04 06:38:42;;;;;;;2.15;1.55;;;;;;;;;;5052057;28;20029;-79
2023/07/04 06:41:11;;;;;;;1.42;1.30;;;;;;;;;;5050428;28;20033;-79
2023/07/04 06:43:38;;;;;;;2.83;1.52;;;;;;;;;;5053682;28;20033;-79
2023/07/04 06:46:04;;;;;;;1.10;1.00;;;;;;;;;;5055273;28;20025;-78
2023/07/04 06:48:29;;;;;;;1.45;1.15;;;;;;;;;;5051944;28;20036;-80
2023/07/04 06:50:56;;;;;;;1.50;1.15;;;;;;;;;;5055924;28;20067;-81
2023/07/04 06:53:22;;;;;;;1.08;0.75;;;;;;;;;;5052134;28;20813;-83
2023/07/04 06:55:48;;;;;;;1.85;1.02;;;;;;;;;;5047483;28;20046;-78
2023/07/04 06:58:15;;;;;;;1.38;0.88;;;;;;;;;;5048143;28;20159;-83
2023/07/04 07:00:41;;;;;;;1.55;1.13;;;;;;;;;;5059203;28;20037;-81
2023/07/04 07:03:06;;;;;;;3.42;1.52;;;;;;;;;;5053073;28;20055;-81
2023/07/04 07:05:40;;;;;;;1.42;1.30;;;;;;;;;;5060242;28;20041;-79
2023/07/04 07:08:05;;;;;;;2.05;1.50;;;;;;;;;;5057948;28;20021;-80
2023/07/04 07:10:31;;;;;;;1.88;1.38;;;;;;;;;;5055979;28;20113;-79
2023/07/04 07:12:58;;;;;;;2.47;1.05;;;;;;;;;;5050382;28;20048;-79
2023/07/04 07:15:25;;;;;;;1.35;1.08;;;;;;;;;;5051175;28;20078;-81
2023/07/04 07:17:50;;;;;;;0.82;0.82;;;;;;;;;;5056172;28;20380;-79
2023/07/04 07:20:16;;;;;;;5.55;1.90;;;;;;;;;;5061173;28;20029;-85
2023/07/04 07:22:41;;;;;;;2.88;1.67;;;;;;;;;;5057124;28;20025;-82
2023/07/04 07:25:07;;;;;;;1.63;1.23;;;;;;;;;;5056934;28;20033;-80
2023/07/04 07:27:32;;;;;;;1.75;1.27;;;;;;;;;;5054016;28;20084;-82
2023/07/04 07:29:58;;;;;;;1.20;1.00;;;;;;;;;;5051274;28;20032;-80
2023/07/04 07:32:23;;;;;;;2.53;1.70;;;;;;;;;;5056194;28;20063;-80
2023/07/04 07:34:48;;;;;;;1.10;0.95;;;;;;;;;;5059414;28;20383;-82
2023/07/04 07:37:14;;;;;;;3.35;1.92;;;;;;;;;;5065890;28;20029;-81
2023/07/04 07:39:40;;;;;;;1.30;1.13;;;;;;;;;;5060430;28;20033;-81
2023/07/04 07:42:06;;;;;;;1.95;1.33;;;;;;;;;;5058787;28;20025;-77
2023/07/04 07:44:31;;;;;;;0.98;0.93;;;;;;;;;;5055329;28;20535;-80
2023/07/04 07:46:57;;;;;;;1.17;1.05;;;;;;;;;;5053814;28;20055;-81
2023/07/04 07:49:22;;;;;;;1.55;1.17;;;;;;;;;;5058629;28;20093;-80
2023/07/04 07:51:48;;;;;;;2.50;1.45;;;;;;;;;;5059502;28;20376;-82
2023/07/04 07:54:14;;;;;;;1.88;1.30;;;;;;;;;;5053326;28;20017;-79
2023/07/04 07:56:44;;;;;;;2.75;1.42;;;;;;;;;;5057232;28;20059;-79
2023/07/04 07:59:10;;;;;;;0.77;0.70;;;;;;;;;;5061763;28;20021;-81
2023/07/04 08:01:36;;;;;;;3.22;1.48;;;;;;;;;;5059250;28;20057;-84
2023/07/04 08:04:03;;;;;;;2.72;1.55;;;;;;;;;;5058821;28;20488;-83
2023/07/04 08:06:39;;;;;;;1.95;1.45;;;;;;;;;;5052588;28;20460;-82
2023/07/04 08:09:07;;;;;;;2.03;1.70;;;;;;;;;;5056572;28;20029;-81
2023/07/04 08:11:33;;;;;;;2.28;1.08;;;;;;;;;;5058129;28;20029;-82
2023/07/04 08:13:59;;;;;;;2.10;1.73;;;;;;;;;;5060373;28;20028;-83
2023/07/04 08:16:28;;;;;;;2.65;1.05;;;;;;;;;;5058641;28;20064;-82
2023/07/04 08:18:55;;;;;;;0.93;0.82;;;;;;;;;;5060298;28;20029;-82
2023/07/04 08:21:23;;;;;;;2.15;0.98;;;;;;;;;;5054778;28;20044;-81
2023/07/04 08:23:49;;;;;;;2.03;1.35;;;;;;;;;;5047407;28;20036;-81
2023/07/04 08:26:22;;;;;;;2.00;1.65;;;;;;;;;;5056097;28;20029;-79
2023/07/04 08:28:49;;;;;;;1.35;1.25;;;;;;;;;;5048612;28;20033;-81
2023/07/04 08:31:18;;;;;;;2.25;1.45;;;;;;;;;;5056858;28;20039;-79
2023/07/04 08:33:45;;;;;;;2.30;1.58;;;;;;;;;;5050746;28;20114;-80
2023/07/04 08:36:11;;;;;;;2.42;1.80;;;;;;;;;;5047248;28;20545;-83
2023/07/04 08:38:37;;;;;;;1.20;1.10;;;;;;;;;;5051505;28;20108;-80
2023/07/04 08:41:03;;;;;;;1.25;1.15;;;;;;;;;;5055181;28;20477;-84
2023/07/04 08:43:34;;;;;;;2.47;1.60;;;;;;;;;;5053601;28;20033;-79
2023/07/04 08:46:04;;;;;;;1.85;1.67;;;;;;;;;;5055181;28;20500;-82
2023/07/04 08:48:30;;;;;;;2.85;1.80;;;;;;;;;;5063001;28;20469;-79
2023/07/04 08:50:59;;;;;;;1.98;1.63;;;;;;;;;;5060851;28;20373;-82
2023/07/04 08:53:25;;;;;;;2.25;1.80;;;;;;;;;;5051497;28;20051;-81
2023/07/04 08:56:08;;;;;;;1.50;1.30;;;;;;;;;;5057677;28;20477;-81
2023/07/04 08:59:05;;;;;;;2.10;1.88;;;;;;;;;;5048412;28;20438;-79
2023/07/04 09:01:39;;;;;;;2.53;1.77;;;;;;;;;;5044078;28;20029;-81
2023/07/04 09:04:14;;;;;;;6.97;2.47;;;;;;;;;;5053786;28;20033;-78
2023/07/04 09:06:50;;;;;;;1.27;1.15;;;;;;;;;;5050612;28;20036;-81
2023/07/04 09:09:29;;;;;;;2.35;1.45;;;;;;;;;;5057072;28;20484;-80
2023/07/04 09:11:55;;;;;;;1.73;1.20;;;;;;;;;;5056154;28;20024;-81
2023/07/04 09:14:48;;;;;;;5.43;2.25;;;;;;;;;;5051853;28;20268;-80
2023/07/04 09:17:26;;;;;;;2.47;1.50;;;;;;;;;;5069771;28;20037;-79
2023/07/04 09:19:52;;;;;;;2.08;1.23;;;;;;;;;;5051708;28;20090;-79
2023/07/04 09:22:19;;;;;;;1.80;1.30;;;;;;;;;;5059717;28;20021;-79
2023/07/04 09:24:47;;;;;;;2.42;1.67;;;;;;;;;;5047633;28;20037;-79
2023/07/04 09:27:14;;;;;;;1.63;1.52;;;;;;;;;;5064302;28;20025;-79
2023/07/04 09:29:40;;;;;;;1.67;1.58;;;;;;;;;;5053379;28;20032;-78
2023/07/04 09:32:07;;;;;;;2.72;1.45;;;;;;;;;;5056703;28;20086;-79
2023/07/04 09:34:40;;;;;;;3.45;2.28;;;;;;;;;;5057371;28;20036;-79
2023/07/04 09:37:12;;;;;;;2.15;1.63;;;;;;;;;;5064001;28;20439;-79
2023/07/04 09:39:54;;;;;;;1.45;1.30;;;;;;;;;;5050288;28;20048;-79
2023/07/04 09:42:22;;;;;;;1.92;1.42;;;;;;;;;;5057949;28;20037;-81
2023/07/04 09:44:51;;;;;;;2.13;1.42;;;;;;;;;;5056507;28;20655;-84
2023/07/04 09:47:28;;;;;;;1.70;1.47;;;;;;;;;;5076329;28;20035;-82
2023/07/04 09:50:40;;;;;;;2.42;1.83;;;;;;;;;;5060815;28;20036;-86
2023/07/04 09:53:12;;;;;;;2.47;1.65;;;;;;;;;;5059757;28;20041;-82
2023/07/04 09:55:39;;;;;;;1.50;1.17;;;;;;;;;;5052582;28;20059;-81
2023/07/04 09:58:21;;;;;;;2.40;1.90;;;;;;;;;;5054503;28;20112;-83
2023/07/04 10:01:18;;;;;;;2.00;1.30;;;;;;;;;;5055857;28;20214;-84
2023/07/04 10:03:49;;;;;;;2.08;1.42;;;;;;;;;;5058750;28;20025;-85
2023/07/04 10:06:30;;;;;;;2.10;1.45;;;;;;;;;;5056861;28;20488;-84
2023/07/04 10:08:56;;;;;;;1.58;1.05;;;;;;;;;;5060319;28;20365;-79
2023/07/04 10:11:33;;;;;;;1.65;1.38;;;;;;;;;;5054433;28;20025;-77
2023/07/04 10:14:06;;;;;;;2.17;1.58;;;;;;;;;;5058845;28;20028;-79
2023/07/04 10:16:32;;;;;;;3.95;2.03;;;;;;;;;;5062001;28;20033;-78
2023/07/04 10:19:10;;;;;;;2.28;1.63;;;;;;;;;;5060503;28;20045;-77
2023/07/04 10:21:50;;;;;;;2.03;1.55;;;;;;;;;;5060069;28;20432;-79
2023/07/04 10:24:25;;;;;;;7.68;1.55;;;;;;;;;;5055872;28;20029;-77
2023/07/04 10:27:03;;;;;;;1.83;1.30;;;;;;;;;;5060229;28;20029;-80
2023/07/04 10:29:38;;;;;;;2.65;1.90;;;;;;;;;;5056007;28;20075;-79
2023/07/04 10:32:08;;;;;;;2.25;1.70;;;;;;;;;;5053388;28;20112;-77
2023/07/04 10:34:36;;;;;;;1.65;1.25;;;;;;;;;;5060911;28;20522;-80
2023/07/04 10:37:03;;;;;;;1.98;1.30;;;;;;;;;;5056372;28;20059;-79
2023/07/04 10:39:30;;;;;;;1.80;1.42;;;;;;;;;;5060921;28;20035;-80
2023/07/04 10:42:09;;;;;;;3.33;1.75;;;;;;;;;;5048180;28;20036;-79
2023/07/04 10:44:37;;;;;;;1.58;1.27;;;;;;;;;;5054271;28;20044;-80
2023/07/04 10:47:06;;;;;;;2.17;1.67;;;;;;;;;;5056850;28;20032;-78
2023/07/04 10:49:39;;;;;;;1.90;1.50;;;;;;;;;;5053678;28;20024;-79
2023/07/04 10:52:19;;;;;;;2.30;1.45;;;;;;;;;;5057620;28;20036;-77
2023/07/04 10:54:44;;;;;;;2.35;1.55;;;;;;;;;;5054478;28;20366;-79
2023/07/04 10:57:24;;;;;;;2.25;1.45;;;;;;;;;;5059341;28;20029;-78
2023/07/04 10:59:54;;;;;;;2.03;1.65;;;;;;;;;;5062257;28;20028;-79
2023/07/04 11:02:31;;;;;;;2.78;1.70;;;;;;;;;;5055167;28;20528;-80
2023/07/04 11:05:06;;;;;;;1.83;1.33;;;;;;;;;;5059502;28;20094;-80
2023/07/04 11:07:34;;;;;;;3.50;1.92;;;;;;;;;;5060793;28;20056;-79
2023/07/04 11:10:03;;;;;;;3.85;1.85;;;;;;;;;;5054483;28;20404;-77
2023/07/04 11:12:29;;;;;;;1.90;1.50;;;;;;;;;;5053863;28;20060;-78
2023/07/04 11:15:04;;;;;;;2.15;1.50;;;;;;;;;;5066321;28;20029;-81
2023/07/04 11:17:33;;;;;;;4.80;1.60;;;;;;;;;;5067210;28;20045;-79
2023/07/04 11:20:12;;;;;;;;;;;;;;;;;;5059307;28;20033;-79
2023/07/04 11:22:44;;;;;;;1.33;1.23;;;;;;;;;;5069465;28;19927;-80
2023/07/04 11:25:32;;;;;;;1.25;0.88;;;;;;;;;;5056683;28;20025;-80
2023/07/04 11:28:18;;;;;;;3.13;1.70;;;;;;;;;;5055620;28;20093;-78
2023/07/04 11:30:50;;;;;;;2.22;1.88;;;;;;;;;;5058578;28;20061;-83
2023/07/04 11:33:53;;;;;;;2.17;1.60;;;;;;;;;;5060378;28;20369;-81
2023/07/04 11:36:46;;;;;;;2.25;1.98;;;;;;;;;;5057477;28;20095;-84
2023/07/04 11:39:28;;;;;;;1.65;1.40;;;;;;;;;;5064226;28;20032;-85
2023/07/04 11:41:55;;;;;;;1.75;1.30;;;;;;;;;;5060157;28;20060;-83
2023/07/04 11:44:31;;;;;;;2.47;1.85;;;;;;;;;;5058962;28;20029;-84
2023/07/04 11:47:02;;;;;;;2.05;1.52;;;;;;;;;;5060947;28;20469;-84
2023/07/04 11:49:29;;;;;;;2.75;1.85;;;;;;;;;;5060026;28;20051;-83
2023/07/04 11:52:19;;;;;;;3.00;2.13;;;;;;;;;;5064633;28;20103;-83
2023/07/04 11:54:54;;;;;;;2.40;1.60;;;;;;;;;;5057594;28;20033;-82
2023/07/04 11:57:21;;;;;;;2.53;1.88;;;;;;;;;;5058365;28;20058;-83
2023/07/04 11:59:47;;;;;;;2.47;1.85;;;;;;;;;;5061060;28;20078;-83
2023/07/04 12:02:29;;;;;;;3.20;1.85;;;;;;;;;;5052174;28;20028;-85
2023/07/04 12:04:56;;;;;;;2.88;2.00;;;;;;;;;;5052770;28;20025;-86
2023/07/04 12:07:40;;;;;;;2.35;2.00;;;;;;;;;;5060437;28;20502;-84
2023/07/04 12:10:17;;;;;;;2.45;1.67;;;;;;;;;;5060467;28;20036;-85
2023/07/04 12:12:43;;;;;;;1.48;1.27;;;;;;;;;;5063006;28;20032;-86
2023/07/04 12:15:12;;;;;;;3.58;2.10;;;;;;;;;;5067993;28;20028;-86
2023/07/04 12:17:43;;;;;;;2.85;1.85;;;;;;;;;;5061869;28;20029;-85
2023/07/04 12:20:14;;;;;;;1.80;1.40;;;;;;;;;;5058756;28;20511;-85
2023/07/04 12:22:44;;;;;;;2.33;1.70;;;;;;;;;;5055264;28;20104;-85
2023/07/04 12:25:14;;;;;;;2.08;1.30;;;;;;;;;;5059708;28;20048;-87
2023/07/04 12:27:42;;;;;;;2.22;1.50;;;;;;;;;;5062289;28;20348;-85
2023/07/04 12:30:10;;;;;;;1.67;1.30;;;;;;;;;;5062182;28;20108;-84
2023/07/04 12:32:37;;;;;;;2.35;1.75;;;;;;;;;;5055211;28;20029;-86
2023/07/04 12:35:03;;;;;;;2.92;1.98;;;;;;;;;;5067270;28;20028;-86
2023/07/04 12:37:31;;;;;;;2.63;1.95;;;;;;;;;;5061333;28;20020;-86
2023/07/04 12:40:01;;;;;;;2.53;1.95;;;;;;;;;;5061000;28;20035;-87
2023/07/04 12:42:31;;;;;;;2.95;1.98;;;;;;;;;;5059232;28;20074;-84
2023/07/04 12:44:57;;;;;;;2.25;1.52;;;;;;;;;;5059142;28;20033;-85
2023/07/04 12:47:25;;;;;;;2.03;1.50;;;;;;;;;;5060575;28;20400;-85
2023/07/04 12:49:53;;;;;;;1.53;1.40;;;;;;;;;;5056355;28;20514;-85
2023/07/04 12:52:22;;;;;;;3.10;2.20;;;;;;;;;;5053458;28;20266;-86
2023/07/04 12:54:48;;;;;;;3.35;2.20;;;;;;;;;;5055432;28;20123;-85
2023/07/04 12:57:16;;;;;;;2.92;1.98;;;;;;;;;;5058626;28;20024;-83
2023/07/04 12:59:42;;;;;;;2.45;2.00;;;;;;;;;;5059447;28;20025;-86
2023/07/04 13:02:32;;;;;;;3.40;1.50;;;;;;;;;;5062317;28;20032;-84
2023/07/04 13:05:03;;;;;;;2.20;1.50;;;;;;;;;;5059252;28;20025;-86
2023/07/04 13:07:28;;;;;;;3.03;1.92;;;;;;;;;;5061088;28;20032;-84
2023/07/04 13:09:56;;;;;;;3.30;1.77;;;;;;;;;;5059458;28;20118;-84
2023/07/04 13:12:34;;;;;;;2.60;2.00;;;;;;;;;;5056362;28;20057;-85
2023/07/04 13:15:04;;;;;;;2.58;1.90;;;;;;;;;;5051478;28;20078;-85
2023/07/04 13:17:30;;;;;;;2.47;1.77;;;;;;;;;;5061573;28;20101;-83
2023/07/04 13:19:56;;;;;;;2.58;1.80;;;;;;;;;;5066470;28;20096;-85
2023/07/04 13:22:25;;;;;;;3.38;1.73;;;;;;;;;;5061173;28;20112;-84
2023/07/04 13:24:52;;;;;;;;;;;;;;;;;;5058278;28;20362;-84
2023/07/04 13:27:27;;;;;;;1.55;1.13;;;;;;;;;;5058293;28;19958;-83
2023/07/04 13:29:58;;;;;;;2.75;1.92;;;;;;;;;;5059607;28;20069;-84
2023/07/04 13:32:35;;;;;;;2.25;1.45;;;;;;;;;;5060192;28;20025;-84
2023/07/04 13:35:39;;;;;;;2.53;1.50;;;;;;;;;;5057527;28;20108;-86
2023/07/04 13:38:09;;;;;;;2.67;1.95;;;;;;;;;;5055667;28;20041;-85
2023/07/04 13:40:35;;;;;;;2.47;2.00;;;;;;;;;;5052611;28;20029;-87
2023/07/04 13:43:10;;;;;;;2.90;1.40;;;;;;;;;;5055934;28;20033;-84
2023/07/04 13:45:37;;;;;;;3.10;1.90;;;;;;;;;;5057998;28;20119;-84
2023/07/04 13:48:03;;;;;;;2.50;2.05;;;;;;;;;;5055049;28;20032;-84
2023/07/04 13:50:32;;;;;;;2.33;1.63;;;;;;;;;;5057684;28;20475;-86
2023/07/04 13:52:57;;;;;;;2.35;1.80;;;;;;;;;;5063736;28;20036;-85
2023/07/04 13:55:23;;;;;;;2.72;1.80;;;;;;;;;;5050604;28;20025;-84
2023/07/04 13:57:49;;;;;;;2.30;1.38;;;;;;;;;;5059620;28;20087;-87
2023/07/04 14:00:15;;;;;;;2.28;1.80;;;;;;;;;;5063223;28;20020;-85
2023/07/04 14:02:41;;;;;;;1.75;1.40;;;;;;;;;;5049813;28;20457;-85
2023/07/04 14:05:06;;;;;;;1.50;1.20;;;;;;;;;;5063035;28;20066;-84
2023/07/04 14:07:32;;;;;;;1.63;1.33;;;;;;;;;;5057031;28;20059;-84
2023/07/04 14:09:59;;;;;;;2.20;1.45;;;;;;;;;;5058110;28;20484;-84
2023/07/04 14:12:24;;;;;;;2.58;1.83;;;;;;;;;;5050290;28;20033;-86
2023/07/04 14:14:50;;;;;;;1.83;1.33;;;;;;;;;;5055383;28;20035;-85
2023/07/04 14:17:15;;;;;;;3.42;1.85;;;;;;;;;;5063304;28;20063;-86
2023/07/04 14:19:41;;;;;;;2.40;1.48;;;;;;;;;;5053589;28;20044;-85
2023/07/04 14:22:07;;;;;;;2.55;1.80;;;;;;;;;;5054677;28;20076;-84
2023/07/04 14:24:33;;;;;;;2.05;1.60;;;;;;;;;;5053504;28;20357;-85
2023/07/04 14:26:58;;;;;;;1.95;1.60;;;;;;;;;;5060342;28;20039;-85
2023/07/04 14:29:24;;;;;;;2.08;1.60;;;;;;;;;;5057222;28;20024;-86
2023/07/04 14:31:49;;;;;;;3.70;1.75;;;;;;;;;;5059607;28;20032;-86
2023/07/04 14:34:15;;;;;;;3.97;2.10;;;;;;;;;;5049892;28;20120;-83
2023/07/04 14:36:40;;;;;;;2.15;1.63;;;;;;;;;;5057592;28;20105;-85
2023/07/04 14:39:06;;;;;;;2.25;1.45;;;;;;;;;;5060383;28;20380;-84
2023/07/04 14:41:32;;;;;;;2.60;1.85;;;;;;;;;;5060502;28;20475;-84
2023/07/04 14:43:58;;;;;;;1.92;1.40;;;;;;;;;;5053299;28;20021;-85
2023/07/04 14:46:23;;;;;;;1.73;1.42;;;;;;;;;;5057623;28;20034;-85
2023/07/04 14:48:49;;;;;;;2.38;1.42;;;;;;;;;;5056408;28;20053;-85
2023/07/04 14:51:14;;;;;;;2.83;1.70;;;;;;;;;;5063655;28;20020;-85
2023/07/04 14:53:42;;;;;;;2.72;1.60;;;;;;;;;;5061832;28;20021;-86
2023/07/04 14:56:10;;;;;;;2.45;1.98;;;;;;;;;;5063253;28;20546;-88